• Join FlightAware (Why Join?)
  • Login
  • US Flag 
01:49AM EDT


 

Airport Tracker/Info


-or-


 

Live Flight TrackerFlight Track Log ✈ TCF5921 ✈ 24-Oct-2013 ✈ KLGA - KDCA

Flight Track Log - Related Links

Times and Time Zones

All times are in EDT time to prevent confusion due to time zone crossing. See the TCF5921 flight status page for this flight to view local times or setup timezone preferences in your user account.

Time Position Orientation Groundspeed Altitude Reporting Facility
EDT Latitude Longitude Course Direction KTS MPH feet Rate Location/Type
04:35PM 40.8167 -73.9167 226° Southwest 178 205 3,300  Level New York TRACON
04:36PM 40.8833 -73.9500 339° North 243 280 6,200 3,480 Climbing New York TRACON
04:37PM 40.9167 -74.0167 304° West 262 302 10,300 3,780 Climbing New York TRACON
04:38PM 40.5188 -74.3166 270° West  Level Estimated
04:38PM 40.9000 -74.1167 258° West 271 312 13,800  Level New York TRACON
04:39PM 40.4539 -74.4270 252° West  Level Estimated
04:39PM 40.8500 -74.2000 232° Southwest 313 360 15,100  Level New York TRACON
04:40PM 40.3889 -74.5373 229° Southwest  Level Estimated
04:41PM 40.3238 -74.6473 226° Southwest  Level Estimated
04:41PM 40.7656 -74.3519 234° Southwest 310 357 15,600  Level New York Center
04:42PM 40.7083 -74.4558 234° Southwest 329 379 17,000 1,200 Climbing New York Center
04:43PM 40.6508 -74.5622 235° Southwest 365 420 18,000 480 Climbing New York Center
04:44PM 40.5908 -74.6708 234° Southwest 371 427 18,000  Level New York Center
04:45PM 40.5311 -74.7767 233° Southwest 364 419 18,000  Level New York Center
04:46PM 40.4778 -74.8719 234° Southwest 369 425 18,000  Level New York Center
04:47PM 40.4133 -74.9853 233° Southwest 369 425 18,000  Level New York Center
04:48PM 40.3433 -75.0817 226° Southwest 364 419 18,000  Level New York Center
04:49PM 40.2750 -75.1781 227° Southwest 364 419 18,000  Level New York Center
04:50PM 40.2047 -75.2742 226° Southwest 364 419 18,000  Level New York Center
04:51PM 40.1453 -75.3600 228° Southwest 369 425 18,000  Level New York Center
04:52PM 40.0719 -75.4692 229° Southwest 364 419 18,000  Level New York Center
04:53PM 40.0142 -75.5600 230° Southwest 364 419 18,000  Level New York Center
04:54PM 39.9450 -75.6692 230° Southwest 364 419 18,000  Level New York Center
04:55PM 39.8872 -75.7569 229° Southwest 364 419 18,000  Level New York Center
04:56PM 39.8181 -75.8603 229° Southwest 364 419 18,000  Level New York Center
04:57PM 39.7556 -75.9556 230° Southwest 358 412 18,000 -420 Level New York Center
04:58PM 39.6931 -76.0481 229° Southwest 358 412 17,200 -1,140 Descending New York Center
04:59PM 39.6369 -76.1356 230° Southwest 351 404 15,800 -1,320 Descending New York Center
05:00PM 39.5742 -76.2306 229° Southwest 340 391 14,600 -1,320 Descending New York Center
05:01PM 39.5333 -76.3000 233° Southwest 330 380 13,600 -1,320 Descending Potomac TRACON
05:02PM 39.4667 -76.3833 224° Southwest 333 383 12,400 -900 Descending Potomac TRACON
05:02PM 39.4000 -76.4667 224° Southwest 335 386 12,000 -300 Descending Potomac TRACON
05:04PM 39.3167 -76.5333 212° Southwest 334 384 11,900 -480 Descending Potomac TRACON
05:05PM 39.2500 -76.6000 218° Southwest 291 335 11,000 -900 Descending Potomac TRACON
05:06PM 39.1833 -76.6500 210° Southwest 266 306 10,200 -540 Descending Potomac TRACON
05:07PM 39.1333 -76.7167 226° Southwest 265 305 10,000 -840 Descending Potomac TRACON
05:08PM 39.0833 -76.7667 218° Southwest 266 306 8,600 -1,680 Descending Potomac TRACON
05:08PM 39.0333 -76.8333 226° Southwest 261 300 6,900 -1,380 Descending Potomac TRACON
05:09PM 38.9833 -76.8833 218° Southwest 255 293 6,000 -600 Descending Potomac TRACON
05:11PM 38.9000 -76.9333 205° Southwest 266 306 5,700 -960 Descending Potomac TRACON
05:12PM 38.8333 -76.9500 191° South 276 318 4,000 -1,440 Descending Potomac TRACON
05:13PM 38.7833 -76.9833 207° Southwest 232 267 2,900 -1,200 Descending Potomac TRACON
05:14PM 38.7833 -77.0333 270° West 152 175 1,700 -1,320 Descending Potomac TRACON
05:14PM 38.8167 -77.0333 360° North 125 144 500 -1,380 Descending Potomac TRACON